To NAV CANADA Home Page Login to a new session Search on AWWS site Feedback and Comments Disclaimer Vers la page française équivalente Tips FAQ What's new on the site To the Forecasts and Observations / NOTAM section To "File a Flight Plan" website Publications and other links Update of the User's profile FIC Telephone Numbers My Weather Data Folder Route Weather Data Regional Weather Data Local Weather Data To the Forecasts and Observations / NOTAM section
Request Generated 03/23/2017 at 00:19:22 UTC . Weather information available at that time is displayed.

METAR/TAF

TORONTO/BILLY BISHOP TORONTO CITY AIRPORT/ON    (show WxCam)

METAR CYTZ 230000Z AUTO 32007KT 9SM CLR M03/M14 A3053 RMK SLP343=
METAR CYTZ 222300Z AUTO 33010KT 300V010 9SM CLR M02/M15 A3051 RMK
SLP339=
METAR CYTZ 222200Z AUTO 31009KT 290V010 9SM CLR M02/M16 A3051 RMK
SLP339=

TAF CYTZ 221939Z 2220/2320 32012G22KT P6SM FEW040
BECMG 2221/2222 34012KT
FM230400 31007KT P6SM SKC
BECMG 2311/2312 26005KT
FM231700 20012KT P6SM FEW150 SCT220
BECMG 2319/2320 15010KT
RMK FCST BASED ON AUTO OBS. NXT FCST BY 230200Z=
Your time UTC time
Weather data provided by Environment Canada and NAV CANADA